sensor_id;sensor_type;location;lat;lon;timestamp;temperature;humidity
25668;DHT22;18003;-33.830;151.202;2023-04-23T00:00:16;18.80;99.90
25668;DHT22;18003;-33.830;151.202;2023-04-23T00:02:47;18.80;99.90
25668;DHT22;18003;-33.830;151.202;2023-04-23T00:05:18;18.90;99.90
25668;DHT22;18003;-33.830;151.202;2023-04-23T00:07:48;18.90;99.90
25668;DHT22;18003;-33.830;151.202;2023-04-23T00:10:19;18.90;99.90
25668;DHT22;18003;-33.830;151.202;2023-04-23T00:12:50;18.80;99.90
25668;DHT22;18003;-33.830;151.202;2023-04-23T00:15:21;18.90;99.90
25668;DHT22;18003;-33.830;151.202;2023-04-23T00:17:50;18.90;99.90
25668;DHT22;18003;-33.830;151.202;2023-04-23T00:20:20;19.00;99.90
25668;DHT22;18003;-33.830;151.202;2023-04-23T00:22:50;18.90;99.90
25668;DHT22;18003;-33.830;151.202;2023-04-23T00:25:21;18.70;99.90
25668;DHT22;18003;-33.830;151.202;2023-04-23T00:27:51;18.70;99.90
25668;DHT22;18003;-33.830;151.202;2023-04-23T00:30:21;18.70;99.90
25668;DHT22;18003;-33.830;151.202;2023-04-23T00:32:51;18.80;99.90
25668;DHT22;18003;-33.830;151.202;2023-04-23T00:35:22;18.80;99.90
25668;DHT22;18003;-33.830;151.202;2023-04-23T00:37:52;18.80;99.90
25668;DHT22;18003;-33.830;151.202;2023-04-23T00:40:23;18.80;99.90
25668;DHT22;18003;-33.830;151.202;2023-04-23T00:42:53;18.80;99.90
25668;DHT22;18003;-33.830;151.202;2023-04-23T00:45:23;18.80;99.90
25668;DHT22;18003;-33.830;151.202;2023-04-23T00:47:53;18.80;99.90
25668;DHT22;18003;-33.830;151.202;2023-04-23T00:50:24;18.80;99.90
25668;DHT22;18003;-33.830;151.202;2023-04-23T00:52:54;18.90;99.90
25668;DHT22;18003;-33.830;151.202;2023-04-23T00:55:24;18.90;99.90
25668;DHT22;18003;-33.830;151.202;2023-04-23T00:57:54;18.90;99.90
25668;DHT22;18003;-33.830;151.202;2023-04-23T01:00:25;18.90;99.90
25668;DHT22;18003;-33.830;151.202;2023-04-23T01:02:55;18.90;99.90
25668;DHT22;18003;-33.830;151.202;2023-04-23T01:05:25;18.90;99.90
25668;DHT22;18003;-33.830;151.202;2023-04-23T01:07:56;18.90;99.90
25668;DHT22;18003;-33.830;151.202;2023-04-23T01:10:26;18.90;99.90
25668;DHT22;18003;-33.830;151.202;2023-04-23T01:12:57;18.90;99.90
25668;DHT22;18003;-33.830;151.202;2023-04-23T01:15:27;19.00;99.90
25668;DHT22;18003;-33.830;151.202;2023-04-23T01:17:57;19.00;99.90
25668;DHT22;18003;-33.830;151.202;2023-04-23T01:20:27;19.00;99.90
25668;DHT22;18003;-33.830;151.202;2023-04-23T01:22:57;19.00;99.90
25668;DHT22;18003;-33.830;151.202;2023-04-23T01:25:33;19.10;99.90
25668;DHT22;18003;-33.830;151.202;2023-04-23T01:27:59;19.10;99.90
25668;DHT22;18003;-33.830;151.202;2023-04-23T01:30:29;19.10;99.90
25668;DHT22;18003;-33.830;151.202;2023-04-23T01:33:01;19.10;99.90
25668;DHT22;18003;-33.830;151.202;2023-04-23T01:35:31;19.20;99.90
25668;DHT22;18003;-33.830;151.202;2023-04-23T01:38:03;19.20;99.90
25668;DHT22;18003;-33.830;151.202;2023-04-23T01:40:32;19.20;99.90
25668;DHT22;18003;-33.830;151.202;2023-04-23T01:43:01;19.20;99.90
25668;DHT22;18003;-33.830;151.202;2023-04-23T01:45:32;19.20;99.90
25668;DHT22;18003;-33.830;151.202;2023-04-23T01:48:02;19.20;99.90
25668;DHT22;18003;-33.830;151.202;2023-04-23T01:50:32;19.20;99.90
25668;DHT22;18003;-33.830;151.202;2023-04-23T01:53:02;19.20;99.90
25668;DHT22;18003;-33.830;151.202;2023-04-23T01:55:33;19.20;99.90
25668;DHT22;18003;-33.830;151.202;2023-04-23T01:58:08;19.20;99.90
25668;DHT22;18003;-33.830;151.202;2023-04-23T02:00:34;19.20;99.90
25668;DHT22;18003;-33.830;151.202;2023-04-23T02:03:04;19.20;99.90
25668;DHT22;18003;-33.830;151.202;2023-04-23T02:05:35;19.30;99.90
25668;DHT22;18003;-33.830;151.202;2023-04-23T02:08:05;19.30;99.90
25668;DHT22;18003;-33.830;151.202;2023-04-23T02:10:35;19.30;99.90
25668;DHT22;18003;-33.830;151.202;2023-04-23T02:13:05;19.30;99.90
25668;DHT22;18003;-33.830;151.202;2023-04-23T02:15:36;19.30;99.90
25668;DHT22;18003;-33.830;151.202;2023-04-23T02:18:07;19.30;99.90
25668;DHT22;18003;-33.830;151.202;2023-04-23T02:20:38;19.30;99.90
25668;DHT22;18003;-33.830;151.202;2023-04-23T02:23:09;19.30;99.90
25668;DHT22;18003;-33.830;151.202;2023-04-23T02:25:39;19.30;99.90
25668;DHT22;18003;-33.830;151.202;2023-04-23T02:28:10;19.30;99.90
25668;DHT22;18003;-33.830;151.202;2023-04-23T02:30:45;19.30;99.90
25668;DHT22;18003;-33.830;151.202;2023-04-23T02:33:12;19.30;99.90
25668;DHT22;18003;-33.830;151.202;2023-04-23T02:35:42;19.30;99.90
25668;DHT22;18003;-33.830;151.202;2023-04-23T02:38:12;19.30;99.90
25668;DHT22;18003;-33.830;151.202;2023-04-23T02:40:42;19.30;99.90
25668;DHT22;18003;-33.830;151.202;2023-04-23T02:43:13;19.30;99.90
25668;DHT22;18003;-33.830;151.202;2023-04-23T02:45:42;19.40;99.90
25668;DHT22;18003;-33.830;151.202;2023-04-23T02:48:15;19.40;99.90
25668;DHT22;18003;-33.830;151.202;2023-04-23T02:50:45;19.50;99.90
25668;DHT22;18003;-33.830;151.202;2023-04-23T02:53:15;19.50;99.90
25668;DHT22;18003;-33.830;151.202;2023-04-23T02:55:45;19.50;99.90
25668;DHT22;18003;-33.830;151.202;2023-04-23T02:58:16;19.40;99.90
25668;DHT22;18003;-33.830;151.202;2023-04-23T03:00:46;19.40;99.90
25668;DHT22;18003;-33.830;151.202;2023-04-23T03:03:16;19.40;99.90
25668;DHT22;18003;-33.830;151.202;2023-04-23T03:05:46;19.40;99.90
25668;DHT22;18003;-33.830;151.202;2023-04-23T03:08:16;19.40;99.90
25668;DHT22;18003;-33.830;151.202;2023-04-23T03:10:47;19.40;99.90
25668;DHT22;18003;-33.830;151.202;2023-04-23T03:13:17;19.60;99.90
25668;DHT22;18003;-33.830;151.202;2023-04-23T03:15:47;19.60;99.90
25668;DHT22;18003;-33.830;151.202;2023-04-23T03:18:18;19.70;99.90
25668;DHT22;18003;-33.830;151.202;2023-04-23T03:20:48;19.70;99.90
25668;DHT22;18003;-33.830;151.202;2023-04-23T03:23:18;19.60;99.90
25668;DHT22;18003;-33.830;151.202;2023-04-23T03:25:48;19.60;99.90
25668;DHT22;18003;-33.830;151.202;2023-04-23T03:28:19;19.70;99.90
25668;DHT22;18003;-33.830;151.202;2023-04-23T03:30:49;19.70;99.90
25668;DHT22;18003;-33.830;151.202;2023-04-23T03:33:19;19.70;99.90
25668;DHT22;18003;-33.830;151.202;2023-04-23T03:35:49;19.70;99.90
25668;DHT22;18003;-33.830;151.202;2023-04-23T03:38:20;19.70;99.90
25668;DHT22;18003;-33.830;151.202;2023-04-23T03:40:50;19.70;99.90
25668;DHT22;18003;-33.830;151.202;2023-04-23T03:43:22;19.70;99.90
25668;DHT22;18003;-33.830;151.202;2023-04-23T03:45:52;19.70;99.90
25668;DHT22;18003;-33.830;151.202;2023-04-23T03:48:22;19.70;99.90
25668;DHT22;18003;-33.830;151.202;2023-04-23T03:50:52;19.60;99.90
25668;DHT22;18003;-33.830;151.202;2023-04-23T03:53:22;19.60;99.90
25668;DHT22;18003;-33.830;151.202;2023-04-23T03:55:52;19.70;99.90
25668;DHT22;18003;-33.830;151.202;2023-04-23T03:58:22;19.60;99.90
25668;DHT22;18003;-33.830;151.202;2023-04-23T04:00:52;19.60;99.90
25668;DHT22;18003;-33.830;151.202;2023-04-23T04:03:23;19.60;99.90
25668;DHT22;18003;-33.830;151.202;2023-04-23T04:05:53;19.50;99.90
25668;DHT22;18003;-33.830;151.202;2023-04-23T04:08:23;19.50;99.90
25668;DHT22;18003;-33.830;151.202;2023-04-23T04:10:54;19.50;99.90
25668;DHT22;18003;-33.830;151.202;2023-04-23T04:13:24;19.60;99.90
25668;DHT22;18003;-33.830;151.202;2023-04-23T04:15:54;19.50;99.90
25668;DHT22;18003;-33.830;151.202;2023-04-23T04:18:24;19.60;99.90
25668;DHT22;18003;-33.830;151.202;2023-04-23T04:20:55;19.60;99.90
25668;DHT22;18003;-33.830;151.202;2023-04-23T04:23:25;19.60;99.90
25668;DHT22;18003;-33.830;151.202;2023-04-23T04:25:55;19.60;99.90
25668;DHT22;18003;-33.830;151.202;2023-04-23T04:28:26;19.60;99.90
25668;DHT22;18003;-33.830;151.202;2023-04-23T04:30:56;19.60;99.90
25668;DHT22;18003;-33.830;151.202;2023-04-23T04:33:27;19.60;99.90
25668;DHT22;18003;-33.830;151.202;2023-04-23T04:35:57;19.60;99.90
25668;DHT22;18003;-33.830;151.202;2023-04-23T04:38:28;19.60;99.90
25668;DHT22;18003;-33.830;151.202;2023-04-23T04:40:59;19.60;99.90
25668;DHT22;18003;-33.830;151.202;2023-04-23T04:43:29;19.60;99.90
25668;DHT22;18003;-33.830;151.202;2023-04-23T04:45:59;19.60;99.90
25668;DHT22;18003;-33.830;151.202;2023-04-23T04:48:29;19.70;99.90
25668;DHT22;18003;-33.830;151.202;2023-04-23T04:50:59;19.70;99.90
25668;DHT22;18003;-33.830;151.202;2023-04-23T04:53:29;19.80;99.90
25668;DHT22;18003;-33.830;151.202;2023-04-23T04:55:59;19.80;99.90
25668;DHT22;18003;-33.830;151.202;2023-04-23T04:58:29;19.80;99.90
25668;DHT22;18003;-33.830;151.202;2023-04-23T05:00:59;19.80;99.90
25668;DHT22;18003;-33.830;151.202;2023-04-23T05:03:29;19.80;99.90
25668;DHT22;18003;-33.830;151.202;2023-04-23T05:05:59;19.80;99.90
25668;DHT22;18003;-33.830;151.202;2023-04-23T05:08:29;19.80;99.90
25668;DHT22;18003;-33.830;151.202;2023-04-23T05:11:00;19.80;99.90
25668;DHT22;18003;-33.830;151.202;2023-04-23T05:13:31;19.80;99.90
25668;DHT22;18003;-33.830;151.202;2023-04-23T05:16:01;19.80;99.90
25668;DHT22;18003;-33.830;151.202;2023-04-23T05:18:31;19.80;99.90
25668;DHT22;18003;-33.830;151.202;2023-04-23T05:21:01;19.90;99.90
25668;DHT22;18003;-33.830;151.202;2023-04-23T05:23:32;19.80;99.90
25668;DHT22;18003;-33.830;151.202;2023-04-23T05:26:02;19.90;99.90
25668;DHT22;18003;-33.830;151.202;2023-04-23T05:28:32;19.80;99.90
25668;DHT22;18003;-33.830;151.202;2023-04-23T05:31:02;19.80;99.90
25668;DHT22;18003;-33.830;151.202;2023-04-23T05:33:32;19.80;99.90
25668;DHT22;18003;-33.830;151.202;2023-04-23T05:36:02;19.80;99.90
25668;DHT22;18003;-33.830;151.202;2023-04-23T05:38:32;19.80;99.90
25668;DHT22;18003;-33.830;151.202;2023-04-23T05:41:02;19.80;99.90
25668;DHT22;18003;-33.830;151.202;2023-04-23T05:43:33;19.80;99.90
25668;DHT22;18003;-33.830;151.202;2023-04-23T05:46:03;19.80;99.90
25668;DHT22;18003;-33.830;151.202;2023-04-23T05:48:34;19.80;99.90
25668;DHT22;18003;-33.830;151.202;2023-04-23T05:51:04;19.80;99.90
25668;DHT22;18003;-33.830;151.202;2023-04-23T05:53:34;19.70;99.90
25668;DHT22;18003;-33.830;151.202;2023-04-23T05:56:05;19.80;99.90
25668;DHT22;18003;-33.830;151.202;2023-04-23T05:58:35;19.80;99.90
25668;DHT22;18003;-33.830;151.202;2023-04-23T06:01:05;19.80;99.90
25668;DHT22;18003;-33.830;151.202;2023-04-23T06:03:36;19.80;99.90
25668;DHT22;18003;-33.830;151.202;2023-04-23T06:06:06;19.80;99.90
25668;DHT22;18003;-33.830;151.202;2023-04-23T06:08:36;19.80;99.90
25668;DHT22;18003;-33.830;151.202;2023-04-23T06:11:06;19.90;99.90
25668;DHT22;18003;-33.830;151.202;2023-04-23T06:13:36;19.90;99.90
25668;DHT22;18003;-33.830;151.202;2023-04-23T06:16:07;19.80;99.90
25668;DHT22;18003;-33.830;151.202;2023-04-23T06:18:37;19.80;99.90
25668;DHT22;18003;-33.830;151.202;2023-04-23T06:21:07;19.80;99.90
25668;DHT22;18003;-33.830;151.202;2023-04-23T06:23:37;19.80;99.90
25668;DHT22;18003;-33.830;151.202;2023-04-23T06:26:08;19.80;99.90
25668;DHT22;18003;-33.830;151.202;2023-04-23T06:28:39;19.70;99.90
25668;DHT22;18003;-33.830;151.202;2023-04-23T06:31:09;19.80;99.90
25668;DHT22;18003;-33.830;151.202;2023-04-23T06:33:39;19.80;99.90
25668;DHT22;18003;-33.830;151.202;2023-04-23T06:36:09;19.80;99.90
25668;DHT22;18003;-33.830;151.202;2023-04-23T06:38:41;19.80;99.90
25668;DHT22;18003;-33.830;151.202;2023-04-23T06:41:11;19.80;99.90
25668;DHT22;18003;-33.830;151.202;2023-04-23T06:43:42;19.80;99.90
25668;DHT22;18003;-33.830;151.202;2023-04-23T06:46:13;19.80;99.90
25668;DHT22;18003;-33.830;151.202;2023-04-23T06:48:43;19.80;99.90
25668;DHT22;18003;-33.830;151.202;2023-04-23T06:51:13;19.80;99.90
25668;DHT22;18003;-33.830;151.202;2023-04-23T06:53:43;19.80;99.90
25668;DHT22;18003;-33.830;151.202;2023-04-23T06:56:13;19.70;99.90
25668;DHT22;18003;-33.830;151.202;2023-04-23T06:58:43;19.80;99.90
25668;DHT22;18003;-33.830;151.202;2023-04-23T07:01:13;19.70;99.90
25668;DHT22;18003;-33.830;151.202;2023-04-23T07:03:43;19.80;99.90
25668;DHT22;18003;-33.830;151.202;2023-04-23T07:06:14;19.90;99.90
25668;DHT22;18003;-33.830;151.202;2023-04-23T07:08:44;20.10;99.90
25668;DHT22;18003;-33.830;151.202;2023-04-23T07:11:15;20.20;99.90
25668;DHT22;18003;-33.830;151.202;2023-04-23T07:13:46;20.20;99.90
25668;DHT22;18003;-33.830;151.202;2023-04-23T07:16:16;20.30;99.90
25668;DHT22;18003;-33.830;151.202;2023-04-23T07:18:46;20.40;99.90
25668;DHT22;18003;-33.830;151.202;2023-04-23T07:21:15;20.40;99.90
25668;DHT22;18003;-33.830;151.202;2023-04-23T07:23:45;20.40;99.90
25668;DHT22;18003;-33.830;151.202;2023-04-23T07:26:15;20.50;99.90
25668;DHT22;18003;-33.830;151.202;2023-04-23T07:28:45;20.50;99.90
25668;DHT22;18003;-33.830;151.202;2023-04-23T07:31:16;20.50;99.90
25668;DHT22;18003;-33.830;151.202;2023-04-23T07:33:46;20.60;99.90
25668;DHT22;18003;-33.830;151.202;2023-04-23T07:36:16;20.50;99.90
25668;DHT22;18003;-33.830;151.202;2023-04-23T07:38:46;20.50;99.90
25668;DHT22;18003;-33.830;151.202;2023-04-23T07:41:16;20.50;99.90
25668;DHT22;18003;-33.830;151.202;2023-04-23T07:43:46;20.50;99.90
25668;DHT22;18003;-33.830;151.202;2023-04-23T07:46:16;20.50;99.90
25668;DHT22;18003;-33.830;151.202;2023-04-23T07:48:47;20.50;99.90
25668;DHT22;18003;-33.830;151.202;2023-04-23T07:51:17;20.50;99.90
25668;DHT22;18003;-33.830;151.202;2023-04-23T07:53:47;20.50;99.90
25668;DHT22;18003;-33.830;151.202;2023-04-23T07:56:18;20.50;99.90
25668;DHT22;18003;-33.830;151.202;2023-04-23T07:58:48;20.50;99.90
25668;DHT22;18003;-33.830;151.202;2023-04-23T08:01:20;20.50;99.90
25668;DHT22;18003;-33.830;151.202;2023-04-23T08:03:50;20.50;99.90
25668;DHT22;18003;-33.830;151.202;2023-04-23T08:06:20;20.50;99.90
25668;DHT22;18003;-33.830;151.202;2023-04-23T08:08:50;20.50;99.90
25668;DHT22;18003;-33.830;151.202;2023-04-23T08:11:21;20.50;99.90
25668;DHT22;18003;-33.830;151.202;2023-04-23T08:13:51;20.50;99.90
25668;DHT22;18003;-33.830;151.202;2023-04-23T08:16:21;20.50;99.90
25668;DHT22;18003;-33.830;151.202;2023-04-23T08:18:52;20.50;99.90
25668;DHT22;18003;-33.830;151.202;2023-04-23T08:21:22;20.50;99.90
25668;DHT22;18003;-33.830;151.202;2023-04-23T08:23:53;20.50;99.90
25668;DHT22;18003;-33.830;151.202;2023-04-23T08:26:23;20.40;99.90
25668;DHT22;18003;-33.830;151.202;2023-04-23T08:28:53;20.40;99.90
25668;DHT22;18003;-33.830;151.202;2023-04-23T08:31:24;20.50;99.90
25668;DHT22;18003;-33.830;151.202;2023-04-23T08:33:54;20.50;99.90
25668;DHT22;18003;-33.830;151.202;2023-04-23T08:36:24;20.40;99.90
25668;DHT22;18003;-33.830;151.202;2023-04-23T08:38:54;20.40;99.90
25668;DHT22;18003;-33.830;151.202;2023-04-23T08:41:26;20.40;99.90
25668;DHT22;18003;-33.830;151.202;2023-04-23T08:44:05;20.50;99.90
25668;DHT22;18003;-33.830;151.202;2023-04-23T08:46:31;20.40;99.90
25668;DHT22;18003;-33.830;151.202;2023-04-23T08:49:00;20.40;99.90
25668;DHT22;18003;-33.830;151.202;2023-04-23T08:51:32;20.40;99.90
25668;DHT22;18003;-33.830;151.202;2023-04-23T08:54:04;20.40;99.90
25668;DHT22;18003;-33.830;151.202;2023-04-23T08:56:36;20.40;99.90
25668;DHT22;18003;-33.830;151.202;2023-04-23T08:59:05;20.40;99.90
25668;DHT22;18003;-33.830;151.202;2023-04-23T09:01:35;20.40;99.90
25668;DHT22;18003;-33.830;151.202;2023-04-23T09:04:05;20.30;99.90
25668;DHT22;18003;-33.830;151.202;2023-04-23T09:06:36;20.40;99.90
25668;DHT22;18003;-33.830;151.202;2023-04-23T09:09:06;20.40;99.90
25668;DHT22;18003;-33.830;151.202;2023-04-23T09:11:37;20.40;99.90
25668;DHT22;18003;-33.830;151.202;2023-04-23T09:14:08;20.30;99.90
25668;DHT22;18003;-33.830;151.202;2023-04-23T09:16:38;20.40;99.90
25668;DHT22;18003;-33.830;151.202;2023-04-23T09:19:10;20.30;99.90
25668;DHT22;18003;-33.830;151.202;2023-04-23T09:21:40;20.30;99.90
25668;DHT22;18003;-33.830;151.202;2023-04-23T09:24:11;20.30;99.90
25668;DHT22;18003;-33.830;151.202;2023-04-23T09:26:45;20.40;99.90
25668;DHT22;18003;-33.830;151.202;2023-04-23T09:29:17;20.30;99.90
25668;DHT22;18003;-33.830;151.202;2023-04-23T09:31:54;20.30;99.90
25668;DHT22;18003;-33.830;151.202;2023-04-23T09:34:20;20.30;99.90
25668;DHT22;18003;-33.830;151.202;2023-04-23T09:36:51;20.30;99.90
25668;DHT22;18003;-33.830;151.202;2023-04-23T09:39:22;20.30;99.90
25668;DHT22;18003;-33.830;151.202;2023-04-23T09:41:53;20.30;99.90
25668;DHT22;18003;-33.830;151.202;2023-04-23T09:44:24;20.30;99.90
25668;DHT22;18003;-33.830;151.202;2023-04-23T09:46:54;20.30;99.90
25668;DHT22;18003;-33.830;151.202;2023-04-23T09:49:24;20.30;99.90
25668;DHT22;18003;-33.830;151.202;2023-04-23T09:51:54;20.30;99.90
25668;DHT22;18003;-33.830;151.202;2023-04-23T09:54:25;20.20;99.90
25668;DHT22;18003;-33.830;151.202;2023-04-23T09:56:55;20.30;99.90
25668;DHT22;18003;-33.830;151.202;2023-04-23T09:59:27;20.30;99.90
25668;DHT22;18003;-33.830;151.202;2023-04-23T10:02:00;20.30;99.90
25668;DHT22;18003;-33.830;151.202;2023-04-23T10:04:28;20.30;99.90
25668;DHT22;18003;-33.830;151.202;2023-04-23T10:07:03;20.30;99.90
25668;DHT22;18003;-33.830;151.202;2023-04-23T10:09:34;20.30;99.90
25668;DHT22;18003;-33.830;151.202;2023-04-23T10:12:04;20.30;99.90
25668;DHT22;18003;-33.830;151.202;2023-04-23T10:14:35;20.20;99.90
25668;DHT22;18003;-33.830;151.202;2023-04-23T10:17:06;20.20;99.90
25668;DHT22;18003;-33.830;151.202;2023-04-23T10:19:36;20.20;99.90
25668;DHT22;18003;-33.830;151.202;2023-04-23T10:22:10;20.20;99.90
25668;DHT22;18003;-33.830;151.202;2023-04-23T10:24:41;20.20;99.90
25668;DHT22;18003;-33.830;151.202;2023-04-23T10:27:12;20.20;99.90
25668;DHT22;18003;-33.830;151.202;2023-04-23T10:29:45;19.90;99.90
25668;DHT22;18003;-33.830;151.202;2023-04-23T10:32:17;20.00;99.90
25668;DHT22;18003;-33.830;151.202;2023-04-23T10:34:49;20.20;99.90
25668;DHT22;18003;-33.830;151.202;2023-04-23T10:37:21;20.20;99.90
25668;DHT22;18003;-33.830;151.202;2023-04-23T10:39:54;20.30;99.90
25668;DHT22;18003;-33.830;151.202;2023-04-23T10:42:24;20.20;99.90
25668;DHT22;18003;-33.830;151.202;2023-04-23T10:44:56;20.10;99.90
25668;DHT22;18003;-33.830;151.202;2023-04-23T10:47:27;20.20;99.90
25668;DHT22;18003;-33.830;151.202;2023-04-23T10:50:00;20.20;99.90
25668;DHT22;18003;-33.830;151.202;2023-04-23T10:52:31;20.20;99.90
25668;DHT22;18003;-33.830;151.202;2023-04-23T10:55:02;20.10;99.90
25668;DHT22;18003;-33.830;151.202;2023-04-23T10:57:51;20.10;99.90
25668;DHT22;18003;-33.830;151.202;2023-04-23T11:00:07;20.20;99.90
25668;DHT22;18003;-33.830;151.202;2023-04-23T11:02:50;20.10;99.90
25668;DHT22;18003;-33.830;151.202;2023-04-23T11:05:18;20.20;99.90
25668;DHT22;18003;-33.830;151.202;2023-04-23T11:08:06;20.10;99.90
25668;DHT22;18003;-33.830;151.202;2023-04-23T11:10:55;20.10;99.90
25668;DHT22;18003;-33.830;151.202;2023-04-23T11:13:28;20.20;99.90
25668;DHT22;18003;-33.830;151.202;2023-04-23T11:16:17;20.20;99.90
25668;DHT22;18003;-33.830;151.202;2023-04-23T11:19:10;20.10;99.90
25668;DHT22;18003;-33.830;151.202;2023-04-23T11:22:14;20.10;99.90
25668;DHT22;18003;-33.830;151.202;2023-04-23T11:24:45;20.10;99.90
25668;DHT22;18003;-33.830;151.202;2023-04-23T11:27:17;20.10;99.90
25668;DHT22;18003;-33.830;151.202;2023-04-23T11:29:47;20.10;99.90
25668;DHT22;18003;-33.830;151.202;2023-04-23T11:32:22;20.10;99.90
25668;DHT22;18003;-33.830;151.202;2023-04-23T11:34:51;20.10;99.90
25668;DHT22;18003;-33.830;151.202;2023-04-23T11:40:18;20.10;99.90
25668;DHT22;18003;-33.830;151.202;2023-04-23T11:42:50;20.10;99.90
25668;DHT22;18003;-33.830;151.202;2023-04-23T11:45:23;20.10;99.90
25668;DHT22;18003;-33.830;151.202;2023-04-23T11:47:55;20.10;99.90
25668;DHT22;18003;-33.830;151.202;2023-04-23T11:50:27;20.10;99.90
25668;DHT22;18003;-33.830;151.202;2023-04-23T11:52:56;20.10;99.90
25668;DHT22;18003;-33.830;151.202;2023-04-23T11:55:34;20.10;99.90
25668;DHT22;18003;-33.830;151.202;2023-04-23T11:58:06;20.00;99.90
25668;DHT22;18003;-33.830;151.202;2023-04-23T12:00:37;20.00;99.90
25668;DHT22;18003;-33.830;151.202;2023-04-23T12:05:44;20.10;99.90
25668;DHT22;18003;-33.830;151.202;2023-04-23T12:08:22;20.10;99.90
25668;DHT22;18003;-33.830;151.202;2023-04-23T12:10:54;20.10;99.90
25668;DHT22;18003;-33.830;151.202;2023-04-23T12:13:29;20.10;99.90
25668;DHT22;18003;-33.830;151.202;2023-04-23T12:16:14;20.10;99.90
25668;DHT22;18003;-33.830;151.202;2023-04-23T12:18:44;20.10;99.90
25668;DHT22;18003;-33.830;151.202;2023-04-23T12:21:14;20.10;99.90
25668;DHT22;18003;-33.830;151.202;2023-04-23T12:23:45;20.10;99.90
25668;DHT22;18003;-33.830;151.202;2023-04-23T12:26:17;20.00;99.90
25668;DHT22;18003;-33.830;151.202;2023-04-23T12:28:51;20.00;99.90
25668;DHT22;18003;-33.830;151.202;2023-04-23T12:31:23;20.10;99.90
25668;DHT22;18003;-33.830;151.202;2023-04-23T12:33:56;20.10;99.90
25668;DHT22;18003;-33.830;151.202;2023-04-23T12:36:28;20.10;99.90
25668;DHT22;18003;-33.830;151.202;2023-04-23T12:42:01;20.00;99.90
25668;DHT22;18003;-33.830;151.202;2023-04-23T12:47:06;20.00;99.90
25668;DHT22;18003;-33.830;151.202;2023-04-23T12:49:38;20.00;99.90
25668;DHT22;18003;-33.830;151.202;2023-04-23T12:52:09;20.00;99.90
25668;DHT22;18003;-33.830;151.202;2023-04-23T12:54:40;20.00;99.90
25668;DHT22;18003;-33.830;151.202;2023-04-23T12:57:19;20.00;99.90
25668;DHT22;18003;-33.830;151.202;2023-04-23T12:59:46;20.00;99.90
25668;DHT22;18003;-33.830;151.202;2023-04-23T13:02:17;20.00;99.90
25668;DHT22;18003;-33.830;151.202;2023-04-23T13:04:48;20.00;99.90
25668;DHT22;18003;-33.830;151.202;2023-04-23T13:07:18;20.00;99.90
25668;DHT22;18003;-33.830;151.202;2023-04-23T13:09:48;20.00;99.90
25668;DHT22;18003;-33.830;151.202;2023-04-23T13:12:18;20.00;99.90
25668;DHT22;18003;-33.830;151.202;2023-04-23T13:14:48;19.90;99.90
25668;DHT22;18003;-33.830;151.202;2023-04-23T13:17:18;20.00;99.90
25668;DHT22;18003;-33.830;151.202;2023-04-23T13:19:48;20.00;99.90
25668;DHT22;18003;-33.830;151.202;2023-04-23T13:22:18;20.00;99.90
25668;DHT22;18003;-33.830;151.202;2023-04-23T13:24:48;19.90;99.90
25668;DHT22;18003;-33.830;151.202;2023-04-23T13:27:17;20.00;99.90
25668;DHT22;18003;-33.830;151.202;2023-04-23T13:29:47;20.00;99.90
25668;DHT22;18003;-33.830;151.202;2023-04-23T13:32:21;20.00;99.90
25668;DHT22;18003;-33.830;151.202;2023-04-23T13:34:50;19.90;99.90
25668;DHT22;18003;-33.830;151.202;2023-04-23T13:37:21;20.00;99.90
25668;DHT22;18003;-33.830;151.202;2023-04-23T13:39:51;20.00;99.90
25668;DHT22;18003;-33.830;151.202;2023-04-23T13:42:22;19.90;99.90
25668;DHT22;18003;-33.830;151.202;2023-04-23T13:44:52;19.90;99.90
25668;DHT22;18003;-33.830;151.202;2023-04-23T13:47:22;19.90;99.90
25668;DHT22;18003;-33.830;151.202;2023-04-23T13:49:54;19.90;99.90
25668;DHT22;18003;-33.830;151.202;2023-04-23T13:52:26;19.90;99.90
25668;DHT22;18003;-33.830;151.202;2023-04-23T13:54:58;19.90;99.90
25668;DHT22;18003;-33.830;151.202;2023-04-23T13:57:32;19.90;99.90
25668;DHT22;18003;-33.830;151.202;2023-04-23T14:00:02;19.90;99.90
25668;DHT22;18003;-33.830;151.202;2023-04-23T14:02:32;19.90;99.90
25668;DHT22;18003;-33.830;151.202;2023-04-23T14:05:02;19.90;99.90
25668;DHT22;18003;-33.830;151.202;2023-04-23T14:07:33;19.90;99.90
25668;DHT22;18003;-33.830;151.202;2023-04-23T14:10:03;19.90;99.90
25668;DHT22;18003;-33.830;151.202;2023-04-23T14:12:33;19.90;99.90
25668;DHT22;18003;-33.830;151.202;2023-04-23T14:15:03;19.90;99.90
25668;DHT22;18003;-33.830;151.202;2023-04-23T14:17:33;19.90;99.90
25668;DHT22;18003;-33.830;151.202;2023-04-23T14:20:04;19.90;99.90
25668;DHT22;18003;-33.830;151.202;2023-04-23T14:22:34;19.90;99.90
25668;DHT22;18003;-33.830;151.202;2023-04-23T14:25:14;19.90;99.90
25668;DHT22;18003;-33.830;151.202;2023-04-23T14:27:46;19.90;99.90
25668;DHT22;18003;-33.830;151.202;2023-04-23T14:30:18;19.90;99.90
25668;DHT22;18003;-33.830;151.202;2023-04-23T14:32:48;19.90;99.90
25668;DHT22;18003;-33.830;151.202;2023-04-23T14:35:18;19.90;99.90
25668;DHT22;18003;-33.830;151.202;2023-04-23T14:37:48;19.90;99.90
25668;DHT22;18003;-33.830;151.202;2023-04-23T14:40:18;19.90;99.90
25668;DHT22;18003;-33.830;151.202;2023-04-23T14:42:48;19.90;99.90
25668;DHT22;18003;-33.830;151.202;2023-04-23T14:45:18;19.90;99.90
25668;DHT22;18003;-33.830;151.202;2023-04-23T14:47:49;19.90;99.90
25668;DHT22;18003;-33.830;151.202;2023-04-23T14:50:19;19.90;99.90
25668;DHT22;18003;-33.830;151.202;2023-04-23T14:52:49;19.90;99.90
25668;DHT22;18003;-33.830;151.202;2023-04-23T14:55:24;19.90;99.90
25668;DHT22;18003;-33.830;151.202;2023-04-23T14:57:50;19.90;99.90
25668;DHT22;18003;-33.830;151.202;2023-04-23T15:00:20;19.90;99.90
25668;DHT22;18003;-33.830;151.202;2023-04-23T15:02:50;19.90;99.90
25668;DHT22;18003;-33.830;151.202;2023-04-23T15:05:20;19.90;99.90
25668;DHT22;18003;-33.830;151.202;2023-04-23T15:07:50;19.90;99.90
25668;DHT22;18003;-33.830;151.202;2023-04-23T15:10:20;19.90;99.90
25668;DHT22;18003;-33.830;151.202;2023-04-23T15:17:55;19.90;99.90
25668;DHT22;18003;-33.830;151.202;2023-04-23T15:20:28;19.90;99.90
25668;DHT22;18003;-33.830;151.202;2023-04-23T15:22:58;19.90;99.90
25668;DHT22;18003;-33.830;151.202;2023-04-23T15:25:29;19.90;99.90